Time;durP1;ratioP1;P1;durP2;ratioP2;P2;SDS_P1;SDS_P2;PMS_P1;PMS_P2;Temp;Humidity;BMP_temperature;BMP_pressure;BME280_temperature;BME280_humidity;BME280_pressure;Samples;Min_cycle;Max_cycle;Signal;HPM_P1;HPM_P2
2022/11/15 05:30:48;;;;;;;;;5.00;3.00;;;;;;;;5744037;23;45641;-58
2022/11/15 05:33:14;;;;;;;;;3.00;2.00;;;;;;;;5017462;28;46055;-58
2022/11/15 05:35:41;;;;;;;;;4.00;4.00;;;;;;;;5017421;28;45255;-58
2022/11/15 05:38:07;;;;;;;;;4.00;2.00;;;;;;;;5019253;28;45474;-59
2022/11/15 05:40:32;;;;;;;;;2.00;2.00;;;;;;;;5018687;28;45597;-58
2022/11/15 05:43:00;;;;;;;;;3.00;3.00;;;;;;;;5023087;28;45459;-58
2022/11/15 05:45:26;;;;;;;;;6.00;3.00;;;;;;;;5018172;28;45834;-59
2022/11/15 05:47:52;;;;;;;;;7.00;3.67;;;;;;;;5018175;28;45316;-58
2022/11/15 05:50:18;;;;;;;;;4.67;4.00;;;;;;;;5016893;28;45487;-58
2022/11/15 05:52:44;;;;;;;;;4.00;4.00;;;;;;;;5019968;28;46243;-58
2022/11/15 05:55:10;;;;;;;;;5.33;4.67;;;;;;;;5017127;28;45422;-58
2022/11/15 05:57:35;;;;;;;;;3.00;3.00;;;;;;;;5021009;28;46003;-58
2022/11/15 06:00:01;;;;;;;;;3.33;3.00;;;;;;;;5005596;28;45460;-58
2022/11/15 06:02:26;;;;;;;;;7.33;4.00;;;;;;;;4993738;28;46178;-58
2022/11/15 06:04:51;;;;;;;;;5.00;5.00;;;;;;;;5010953;28;45299;-58
2022/11/15 06:07:16;;;;;;;;;4.67;4.67;;;;;;;;5016640;28;45364;-58
2022/11/15 06:09:41;;;;;;;;;7.00;4.33;;;;;;;;5018713;28;45514;-58
2022/11/15 06:12:07;;;;;;;;;8.33;6.33;;;;;;;;5012034;28;45299;-58
2022/11/15 06:14:32;;;;;;;;;5.00;5.00;;;;;;;;5009049;28;45408;-58
2022/11/15 06:16:57;;;;;;;;;10.67;6.00;;;;;;;;5010485;28;45528;-58
2022/11/15 06:19:22;;;;;;;;;6.67;5.00;;;;;;;;5023150;28;45226;-58
2022/11/15 06:21:47;;;;;;;;;6.33;6.33;;;;;;;;5003230;28;45481;-59
2022/11/15 06:24:12;;;;;;;;;4.00;4.00;;;;;;;;5008258;28;45424;-58
2022/11/15 06:26:38;;;;;;;;;7.33;5.00;;;;;;;;5010161;28;45248;-59
2022/11/15 06:29:04;;;;;;;;;6.67;5.00;;;;;;;;5018531;28;45230;-59
2022/11/15 06:31:29;;;;;;;;;5.00;5.00;;;;;;;;5016725;28;47047;-59
2022/11/15 06:33:55;;;;;;;;;7.67;5.00;;;;;;;;5021110;28;45371;-59
2022/11/15 06:36:20;;;;;;;;;6.33;5.00;;;;;;;;5016990;28;45399;-59
2022/11/15 06:38:46;;;;;;;;;6.00;4.67;;;;;;;;5018025;28;45248;-59
2022/11/15 06:41:12;;;;;;;;;6.67;5.67;;;;;;;;4998180;28;48070;-60
2022/11/15 06:43:37;;;;;;;;;4.67;4.67;;;;;;;;5015959;28;47049;-60
2022/11/15 06:46:03;;;;;;;;;6.33;4.33;;;;;;;;5011582;28;45428;-61
2022/11/15 06:48:29;;;;;;;;;8.00;6.00;;;;;;;;5018633;28;45409;-60
2022/11/15 06:50:58;;;;;;;;;7.33;6.33;;;;;;;;5016433;28;46297;-60
2022/11/15 06:53:23;;;;;;;;;6.33;6.33;;;;;;;;5017781;28;45432;-60
2022/11/15 06:55:49;;;;;;;;;7.00;6.33;;;;;;;;5015945;28;45259;-60
2022/11/15 06:58:14;;;;;;;;;10.33;7.67;;;;;;;;5014439;28;45432;-60
2022/11/15 07:00:40;;;;;;;;;6.67;6.67;;;;;;;;5014476;28;45541;-60
2022/11/15 07:03:05;;;;;;;;;7.33;6.00;;;;;;;;5016107;28;45604;-60
2022/11/15 07:05:30;;;;;;;;;5.67;5.67;;;;;;;;5018391;28;45206;-60
2022/11/15 07:07:56;;;;;;;;;7.00;7.00;;;;;;;;5016619;28;45411;-60
2022/11/15 07:10:24;;;;;;;;;6.67;5.00;;;;;;;;5017890;28;46385;-60
2022/11/15 07:12:49;;;;;;;;;8.00;4.00;;;;;;;;5017339;28;45359;-59
2022/11/15 07:15:15;;;;;;;;;4.33;4.00;;;;;;;;5015562;28;45881;-60
2022/11/15 07:17:40;;;;;;;;;6.33;3.33;;;;;;;;5019038;28;45434;-59
2022/11/15 07:20:06;;;;;;;;;6.33;5.00;;;;;;;;5018565;28;46132;-59
2022/11/15 07:22:31;;;;;;;;;7.00;7.00;;;;;;;;5023606;28;45482;-59
2022/11/15 07:24:56;;;;;;;;;6.67;5.67;;;;;;;;5011255;28;45344;-59
2022/11/15 07:27:21;;;;;;;;;5.00;4.33;;;;;;;;5021027;28;45605;-59
2022/11/15 07:29:47;;;;;;;;;5.00;5.00;;;;;;;;5019894;28;46007;-59
2022/11/15 07:32:12;;;;;;;;;7.00;5.67;;;;;;;;5018679;28;45338;-60
2022/11/15 07:34:37;;;;;;;;;8.67;5.00;;;;;;;;5021056;28;45352;-61
2022/11/15 07:37:02;;;;;;;;;5.67;5.00;;;;;;;;5015892;28;45317;-61
2022/11/15 07:39:27;;;;;;;;;4.67;4.00;;;;;;;;4998191;28;46157;-60
2022/11/15 07:42:52;;;;;;;;;7.33;5.33;;;;;;;;5016315;28;45560;-61
2022/11/15 07:44:38;;;;;;;;;6.67;5.00;;;;;;;;5002124;28;45416;-61
2022/11/15 07:47:03;;;;;;;;;8.33;7.00;;;;;;;;5002500;28;45649;-60
2022/11/15 07:49:28;;;;;;;;;5.00;5.00;;;;;;;;5013700;28;46304;-61
2022/11/15 07:51:53;;;;;;;;;5.33;5.33;;;;;;;;5021707;28;45250;-60
2022/11/15 07:54:18;;;;;;;;;5.33;5.00;;;;;;;;5020230;28;45392;-60
2022/11/15 07:56:43;;;;;;;;;5.00;4.33;;;;;;;;5019232;28;45585;-60
2022/11/15 07:59:09;;;;;;;;;7.00;5.67;;;;;;;;5008361;28;46119;-60
2022/11/15 08:01:34;;;;;;;;;5.33;3.33;;;;;;;;5008422;28;45388;-59
2022/11/15 08:03:59;;;;;;;;;7.00;5.00;;;;;;;;5018443;28;45271;-59
2022/11/15 08:06:24;;;;;;;;;13.33;9.00;;;;;;;;5020707;28;45269;-59
2022/11/15 08:08:49;;;;;;;;;10.00;6.00;;;;;;;;4993991;28;47186;-60
2022/11/15 08:11:15;;;;;;;;;5.67;5.00;;;;;;;;5012336;28;45301;-59
2022/11/15 08:13:40;;;;;;;;;6.33;3.00;;;;;;;;5011794;28;45337;-60
2022/11/15 08:16:05;;;;;;;;;6.00;4.00;;;;;;;;5020454;28;45436;-59
2022/11/15 08:18:30;;;;;;;;;10.00;5.00;;;;;;;;5011487;28;45492;-59
2022/11/15 08:20:59;;;;;;;;;9.67;4.00;;;;;;;;5008359;28;45348;-59
2022/11/15 08:23:24;;;;;;;;;8.33;4.33;;;;;;;;5015418;28;45305;-60
2022/11/15 08:25:49;;;;;;;;;4.67;3.00;;;;;;;;5016656;28;45303;-60
2022/11/15 08:28:16;;;;;;;;;4.33;4.33;;;;;;;;5014236;28;45602;-60
2022/11/15 08:30:42;;;;;;;;;5.00;4.00;;;;;;;;5016056;28;45353;-60
2022/11/15 08:33:09;;;;;;;;;6.00;4.00;;;;;;;;5015120;28;45617;-60
2022/11/15 08:35:35;;;;;;;;;5.67;5.00;;;;;;;;5011182;28;45478;-59
2022/11/15 08:38:00;;;;;;;;;6.33;5.67;;;;;;;;5010611;28;46170;-60
2022/11/15 08:40:26;;;;;;;;;3.00;3.00;;;;;;;;5016556;28;45284;-60
2022/11/15 08:42:52;;;;;;;;;5.00;5.00;;;;;;;;5014650;28;45429;-60
2022/11/15 08:45:17;;;;;;;;;6.67;6.67;;;;;;;;5010689;28;45495;-60
2022/11/15 08:47:42;;;;;;;;;6.00;5.00;;;;;;;;5019478;28;46034;-60
2022/11/15 08:50:08;;;;;;;;;5.33;5.33;;;;;;;;5010695;28;45244;-60
2022/11/15 08:52:33;;;;;;;;;4.00;4.00;;;;;;;;5020072;28;45276;-60
2022/11/15 08:54:58;;;;;;;;;6.67;5.33;;;;;;;;5019725;28;45288;-60
2022/11/15 08:57:23;;;;;;;;;4.00;4.00;;;;;;;;5019549;28;45293;-59
2022/11/15 08:59:49;;;;;;;;;4.00;4.00;;;;;;;;5019552;28;45701;-59
2022/11/15 09:02:15;;;;;;;;;5.00;5.00;;;;;;;;5019404;28;45257;-59
2022/11/15 09:04:43;;;;;;;;;6.67;4.67;;;;;;;;5019612;28;45433;-59
2022/11/15 09:07:12;;;;;;;;;5.33;4.00;;;;;;;;5019358;28;45432;-59
2022/11/15 09:09:38;;;;;;;;;4.67;4.67;;;;;;;;5019578;28;45429;-59
2022/11/15 09:12:03;;;;;;;;;6.00;6.00;;;;;;;;5017901;28;45359;-60
2022/11/15 09:14:28;;;;;;;;;5.67;4.00;;;;;;;;5019760;28;45315;-59
2022/11/15 09:16:54;;;;;;;;;3.33;3.00;;;;;;;;5017938;28;45483;-59
2022/11/15 09:19:19;;;;;;;;;4.00;4.00;;;;;;;;5018485;28;45327;-59
2022/11/15 09:21:44;;;;;;;;;4.00;4.00;;;;;;;;5018247;28;45266;-59
2022/11/15 09:24:09;;;;;;;;;6.00;4.00;;;;;;;;5018707;28;45523;-59
2022/11/15 09:26:34;;;;;;;;;5.00;5.00;;;;;;;;5018033;28;46084;-59
2022/11/15 09:29:01;;;;;;;;;6.33;4.00;;;;;;;;5017234;28;45470;-59
2022/11/15 09:31:26;;;;;;;;;4.00;3.67;;;;;;;;5017568;28;45344;-59
2022/11/15 09:33:52;;;;;;;;;4.33;3.33;;;;;;;;5019109;28;45503;-59
2022/11/15 09:36:17;;;;;;;;;5.00;5.00;;;;;;;;5014957;28;45217;-59
2022/11/15 09:38:42;;;;;;;;;6.33;5.00;;;;;;;;5018221;28;45320;-59
2022/11/15 09:41:07;;;;;;;;;4.00;4.00;;;;;;;;5019326;28;45273;-59
2022/11/15 09:43:42;;;;;;;;;4.00;3.00;;;;;;;;5017277;28;45170;-59
2022/11/15 09:46:13;;;;;;;;;6.00;5.00;;;;;;;;5018945;28;46325;-59
2022/11/15 09:48:44;;;;;;;;;5.33;4.00;;;;;;;;5019124;28;45304;-59
2022/11/15 09:51:14;;;;;;;;;4.00;4.00;;;;;;;;5016886;28;45633;-59
2022/11/15 09:53:42;;;;;;;;;3.00;3.00;;;;;;;;5019103;28;45692;-59
2022/11/15 09:56:18;;;;;;;;;4.00;3.67;;;;;;;;5001032;28;47224;-59
2022/11/15 09:58:51;;;;;;;;;8.67;4.00;;;;;;;;5018089;28;45434;-59
2022/11/15 10:01:37;;;;;;;;;6.33;5.00;;;;;;;;5018315;28;45400;-59
2022/11/15 10:04:02;;;;;;;;;6.00;3.00;;;;;;;;5017936;28;45535;-59
2022/11/15 10:06:27;;;;;;;;;6.33;4.00;;;;;;;;5017828;28;46439;-58
2022/11/15 10:09:01;;;;;;;;;5.67;5.00;;;;;;;;5017595;28;45455;-59
2022/11/15 10:11:28;;;;;;;;;2.00;2.00;;;;;;;;5001349;28;45328;-59
2022/11/15 10:13:55;;;;;;;;;3.00;3.00;;;;;;;;5017327;28;45186;-59
2022/11/15 10:16:20;;;;;;;;;4.33;3.33;;;;;;;;5018910;28;46046;-59
2022/11/15 10:18:54;;;;;;;;;4.00;4.00;;;;;;;;5015837;28;45321;-59
2022/11/15 10:21:21;;;;;;;;;4.67;3.00;;;;;;;;5018981;28;45352;-59
2022/11/15 10:23:47;;;;;;;;;5.00;4.67;;;;;;;;5015678;28;45488;-59
2022/11/15 10:26:15;;;;;;;;;7.00;7.00;;;;;;;;5017438;28;46296;-59
2022/11/15 10:28:41;;;;;;;;;5.00;3.00;;;;;;;;5017647;28;45321;-59
2022/11/15 10:31:22;;;;;;;;;3.00;3.00;;;;;;;;5018545;28;45410;-59
2022/11/15 10:33:47;;;;;;;;;5.33;4.00;;;;;;;;5018355;28;45366;-59
2022/11/15 10:36:12;;;;;;;;;7.00;6.00;;;;;;;;5018553;28;46321;-59
2022/11/15 10:38:49;;;;;;;;;4.75;3.00;;;;;;;;5018785;28;45395;-59
2022/11/15 10:41:26;;;;;;;;;3.33;3.00;;;;;;;;5015360;28;45376;-59
2022/11/15 10:44:12;;;;;;;;;4.67;4.00;;;;;;;;5016443;28;45642;-59
2022/11/15 10:46:38;;;;;;;;;3.00;2.67;;;;;;;;5017058;28;46338;-59
2022/11/15 10:49:17;;;;;;;;;3.00;3.00;;;;;;;;5016973;28;45239;-59
2022/11/15 10:51:51;;;;;;;;;4.00;2.00;;;;;;;;5001320;28;45408;-59
2022/11/15 10:54:21;;;;;;;;;4.33;3.00;;;;;;;;5017018;28;45364;-59
2022/11/15 10:56:55;;;;;;;;;4.67;4.67;;;;;;;;5020900;28;46361;-59
2022/11/15 10:59:26;;;;;;;;;5.00;3.33;;;;;;;;5021083;28;45330;-59
2022/11/15 11:01:51;;;;;;;;;4.33;3.00;;;;;;;;5021262;28;45342;-59
2022/11/15 11:04:18;;;;;;;;;7.00;7.00;;;;;;;;5020794;28;45515;-59
2022/11/15 11:06:57;;;;;;;;;7.33;5.67;;;;;;;;5020956;28;46898;-59
2022/11/15 11:09:25;;;;;;;;;7.67;5.00;;;;;;;;5020831;28;45182;-58
2022/11/15 11:11:51;;;;;;;;;7.00;5.33;;;;;;;;5020930;28;45209;-59
2022/11/15 11:14:19;;;;;;;;;6.00;6.00;;;;;;;;5021015;28;45456;-59
2022/11/15 11:16:49;;;;;;;;;6.00;5.00;;;;;;;;5020581;28;46266;-59
2022/11/15 11:19:30;;;;;;;;;8.00;6.00;;;;;;;;5008829;28;45520;-59
2022/11/15 11:22:11;;;;;;;;;5.33;5.33;;;;;;;;5020290;28;45488;-59
2022/11/15 11:24:40;;;;;;;;;4.00;4.00;;;;;;;;5021333;28;45368;-59
2022/11/15 11:27:27;;;;;;;;;5.33;5.00;;;;;;;;5002034;28;48062;-59
2022/11/15 11:29:58;;;;;;;;;5.67;4.00;;;;;;;;5019105;28;45266;-59
2022/11/15 11:32:32;;;;;;;;;5.33;5.33;;;;;;;;5019640;28;45239;-59
2022/11/15 11:34:57;;;;;;;;;4.67;4.67;;;;;;;;5019544;28;45579;-59
2022/11/15 11:37:29;;;;;;;;;4.50;4.50;;;;;;;;5019642;28;45372;-59
2022/11/15 11:40:11;;;;;;;;;4.00;4.00;;;;;;;;5017398;28;45288;-59
2022/11/15 11:43:02;;;;;;;;;3.00;3.00;;;;;;;;5020503;28;45286;-59
2022/11/15 11:45:30;;;;;;;;;4.00;4.00;;;;;;;;4995631;28;45520;-60
2022/11/15 11:48:03;;;;;;;;;4.67;4.67;;;;;;;;5020410;28;46086;-59
2022/11/15 11:50:28;;;;;;;;;6.67;6.00;;;;;;;;5021006;28;45303;-59
2022/11/15 11:52:59;;;;;;;;;5.67;5.67;;;;;;;;5005977;28;45355;-59
2022/11/15 11:55:24;;;;;;;;;5.00;4.00;;;;;;;;5020860;28;45383;-59
2022/11/15 11:58:02;;;;;;;;;7.67;5.00;;;;;;;;5019906;28;45305;-59
2022/11/15 12:00:28;;;;;;;;;8.00;8.00;;;;;;;;5020682;28;45481;-59
2022/11/15 12:03:00;;;;;;;;;8.00;7.00;;;;;;;;5019292;28;45325;-59
2022/11/15 12:05:44;;;;;;;;;6.00;6.00;;;;;;;;5020584;28;45471;-59
2022/11/15 12:08:18;;;;;;;;;6.00;6.00;;;;;;;;5020454;28;46348;-58
2022/11/15 12:10:47;;;;;;;;;6.33;5.00;;;;;;;;5019245;28;45451;-59
2022/11/15 12:13:21;;;;;;;;;7.00;6.00;;;;;;;;5020786;28;45340;-59
2022/11/15 12:15:56;;;;;;;;;7.67;5.00;;;;;;;;5020036;28;45376;-60
2022/11/15 12:18:21;;;;;;;;;6.67;6.67;;;;;;;;5018908;28;45366;-59
2022/11/15 12:20:53;;;;;;;;;6.00;6.00;;;;;;;;5007793;28;45353;-60
2022/11/15 12:23:29;;;;;;;;;8.00;6.00;;;;;;;;5020437;28;45291;-59
2022/11/15 12:25:57;;;;;;;;;8.00;8.00;;;;;;;;5019274;28;45359;-59
2022/11/15 12:28:37;;;;;;;;;8.00;7.67;;;;;;;;5019022;28;45913;-59
2022/11/15 12:31:16;;;;;;;;;6.00;4.67;;;;;;;;5019711;28;45369;-59
2022/11/15 12:33:43;;;;;;;;;6.67;6.67;;;;;;;;5019604;28;45610;-59
2022/11/15 12:36:08;;;;;;;;;6.33;6.33;;;;;;;;5019457;28;45390;-59
2022/11/15 12:38:53;;;;;;;;;7.33;6.00;;;;;;;;5018226;28;45293;-59
2022/11/15 12:41:19;;;;;;;;;7.00;7.00;;;;;;;;5019891;28;45463;-59
2022/11/15 12:43:45;;;;;;;;;6.00;6.00;;;;;;;;5018264;28;45376;-59
2022/11/15 12:46:23;;;;;;;;;11.33;7.00;;;;;;;;5019901;28;45923;-59
2022/11/15 12:48:50;;;;;;;;;5.33;2.00;;;;;;;;5017717;28;46579;-59
2022/11/15 12:51:15;;;;;;;;;6.67;6.33;;;;;;;;5014888;28;45421;-59
2022/11/15 12:53:40;;;;;;;;;10.67;8.00;;;;;;;;5010196;28;45502;-59
2022/11/15 12:56:06;;;;;;;;;8.00;7.00;;;;;;;;5019740;28;45518;-61
2022/11/15 12:58:50;;;;;;;;;7.00;7.00;;;;;;;;5019632;28;45496;-59
2022/11/15 13:01:30;;;;;;;;;7.33;6.00;;;;;;;;5019806;28;45222;-59
2022/11/15 13:04:08;;;;;;;;;10.33;9.00;;;;;;;;5017932;28;45431;-59
2022/11/15 13:06:38;;;;;;;;;5.33;5.33;;;;;;;;5019266;28;45491;-59
2022/11/15 13:09:03;;;;;;;;;6.33;6.33;;;;;;;;5018388;28;46136;-59
2022/11/15 13:11:42;;;;;;;;;9.00;8.33;;;;;;;;5019940;28;45651;-59
2022/11/15 13:14:26;;;;;;;;;8.00;8.00;;;;;;;;5017963;28;45483;-59
2022/11/15 13:16:57;;;;;;;;;7.67;7.67;;;;;;;;5031720;28;46255;-60
2022/11/15 13:19:23;;;;;;;;;7.67;7.00;;;;;;;;5018638;28;46050;-60
2022/11/15 13:24:32;;;;;;;;;11.33;9.00;;;;;;;;5019845;28;45316;-59
2022/11/15 13:26:58;;;;;;;;;9.67;9.00;;;;;;;;5017961;28;45404;-60
2022/11/15 13:29:23;;;;;;;;;8.33;8.00;;;;;;;;5018128;28;45336;-60
2022/11/15 13:31:48;;;;;;;;;11.00;8.33;;;;;;;;5016348;28;45423;-60
2022/11/15 13:34:16;;;;;;;;;12.00;8.00;;;;;;;;5018682;28;45460;-60
2022/11/15 13:36:42;;;;;;;;;10.00;9.00;;;;;;;;5018902;28;45177;-60
2022/11/15 13:39:23;;;;;;;;;8.00;7.00;;;;;;;;5017558;28;46081;-60
2022/11/15 13:41:49;;;;;;;;;6.67;6.67;;;;;;;;5018112;28;45388;-60
2022/11/15 13:44:26;;;;;;;;;11.00;9.00;;;;;;;;5016622;28;45389;-60
2022/11/15 13:47:10;;;;;;;;;7.00;7.00;;;;;;;;5012685;28;45666;-60
2022/11/15 13:49:37;;;;;;;;;6.00;5.00;;;;;;;;5017009;28;46206;-60
2022/11/15 13:52:04;;;;;;;;;11.00;11.00;;;;;;;;5016047;28;45455;-60
2022/11/15 13:54:35;;;;;;;;;8.00;7.33;;;;;;;;5018234;28;45396;-60
2022/11/15 13:57:09;;;;;;;;;8.00;5.00;;;;;;;;5018004;28;45879;-60
2022/11/15 13:59:36;;;;;;;;;6.67;4.67;;;;;;;;4999582;28;46202;-60
2022/11/15 14:02:13;;;;;;;;;6.00;5.67;;;;;;;;4998519;28;45309;-60
2022/11/15 14:04:39;;;;;;;;;4.33;4.33;;;;;;;;5006843;28;45343;-60
2022/11/15 14:07:04;;;;;;;;;6.67;5.33;;;;;;;;5018204;28;45411;-60
2022/11/15 14:09:33;;;;;;;;;3.00;3.00;;;;;;;;5019157;28;46307;-60
2022/11/15 14:12:00;;;;;;;;;5.00;4.00;;;;;;;;5017781;28;45367;-60
2022/11/15 14:14:26;;;;;;;;;7.67;6.33;;;;;;;;5018145;28;45478;-60
2022/11/15 14:16:53;;;;;;;;;5.00;5.00;;;;;;;;5016953;28;46397;-60
2022/11/15 14:19:21;;;;;;;;;4.67;4.67;;;;;;;;5018281;28;46897;-60
2022/11/15 14:22:05;;;;;;;;;8.00;6.00;;;;;;;;5017547;28;45299;-60
2022/11/15 14:24:31;;;;;;;;;5.33;4.33;;;;;;;;5018378;28;45529;-60
2022/11/15 14:26:56;;;;;;;;;6.00;6.00;;;;;;;;5021498;28;45447;-60
2022/11/15 14:29:25;;;;;;;;;8.00;7.00;;;;;;;;5020723;28;45376;-60
2022/11/15 14:31:51;;;;;;;;;6.67;5.00;;;;;;;;5021610;28;45401;-60
2022/11/15 14:34:16;;;;;;;;;7.00;7.00;;;;;;;;5021205;28;45344;-60
2022/11/15 14:36:42;;;;;;;;;6.67;6.67;;;;;;;;5020536;28;45307;-60
2022/11/15 14:39:07;;;;;;;;;6.00;6.00;;;;;;;;5021984;28;46079;-60
2022/11/15 14:41:37;;;;;;;;;7.33;7.33;;;;;;;;5022093;28;45333;-60
2022/11/15 14:44:03;;;;;;;;;6.00;5.00;;;;;;;;5021541;28;45425;-60
2022/11/15 14:46:28;;;;;;;;;7.00;7.00;;;;;;;;5020044;28;45553;-60
2022/11/15 14:48:53;;;;;;;;;9.00;6.00;;;;;;;;5019573;28;45367;-60
2022/11/15 14:51:19;;;;;;;;;7.00;7.00;;;;;;;;5017658;28;45311;-60
2022/11/15 14:53:44;;;;;;;;;9.00;9.00;;;;;;;;5012306;28;45415;-60
2022/11/15 14:56:10;;;;;;;;;9.33;8.00;;;;;;;;5021474;28;45302;-60
2022/11/15 14:58:35;;;;;;;;;10.33;8.67;;;;;;;;5021823;28;45987;-60
2022/11/15 15:01:02;;;;;;;;;8.00;8.00;;;;;;;;5019731;28;45410;-60
2022/11/15 15:03:27;;;;;;;;;6.00;6.00;;;;;;;;5019765;28;45556;-60
2022/11/15 15:05:52;;;;;;;;;7.33;7.33;;;;;;;;5020058;28;45297;-60
2022/11/15 15:08:17;;;;;;;;;8.33;8.33;;;;;;;;5020567;28;46063;-60
2022/11/15 15:10:44;;;;;;;;;10.00;9.00;;;;;;;;5019725;28;45660;-60
2022/11/15 15:13:15;;;;;;;;;10.00;8.00;;;;;;;;5020785;28;45415;-60
2022/11/15 15:15:40;;;;;;;;;8.00;8.00;;;;;;;;5019633;28;45352;-60
2022/11/15 15:18:08;;;;;;;;;9.33;8.67;;;;;;;;5020410;28;45807;-60
2022/11/15 15:20:34;;;;;;;;;7.33;7.00;;;;;;;;5021205;28;45309;-60
2022/11/15 15:22:59;;;;;;;;;7.33;5.33;;;;;;;;5018656;28;45288;-60
2022/11/15 15:25:28;;;;;;;;;7.33;5.67;;;;;;;;5019151;28;45520;-60
2022/11/15 15:27:54;;;;;;;;;8.67;7.00;;;;;;;;5019454;28;45443;-60
2022/11/15 15:30:20;;;;;;;;;9.00;8.00;;;;;;;;5017972;28;45368;-60
2022/11/15 15:32:45;;;;;;;;;8.00;7.00;;;;;;;;5019560;28;45405;-60
2022/11/15 15:35:11;;;;;;;;;9.00;9.00;;;;;;;;5018865;28;45738;-60
2022/11/15 15:37:36;;;;;;;;;9.67;8.33;;;;;;;;5017810;28;46225;-58
2022/11/15 15:40:01;;;;;;;;;11.33;10.00;;;;;;;;5019831;28;45423;-61
2022/11/15 15:42:27;;;;;;;;;8.00;7.00;;;;;;;;5022450;28;45425;-60
2022/11/15 15:44:52;;;;;;;;;9.00;9.00;;;;;;;;5013461;28;45142;-60
2022/11/15 15:47:17;;;;;;;;;8.00;8.00;;;;;;;;5017071;28;46231;-60
2022/11/15 15:49:42;;;;;;;;;9.25;8.75;;;;;;;;5020747;28;45352;-60
2022/11/15 15:52:08;;;;;;;;;16.00;10.00;;;;;;;;4993676;28;45510;-60
2022/11/15 15:54:33;;;;;;;;;10.33;9.00;;;;;;;;5002021;28;45407;-60
2022/11/15 15:56:59;;;;;;;;;12.67;10.00;;;;;;;;5020036;28;46028;-60
2022/11/15 15:59:24;;;;;;;;;14.33;11.00;;;;;;;;5022434;28;45309;-60
2022/11/15 16:01:49;;;;;;;;;6.00;6.00;;;;;;;;5008012;28;45255;-60
2022/11/15 16:04:14;;;;;;;;;9.67;9.67;;;;;;;;5009809;28;45420;-60
2022/11/15 16:06:43;;;;;;;;;12.33;11.33;;;;;;;;5007935;28;45511;-60
2022/11/15 16:09:12;;;;;;;;;10.67;10.67;;;;;;;;5009842;28;45430;-60
2022/11/15 16:11:37;;;;;;;;;13.00;13.00;;;;;;;;5020631;28;45413;-60
2022/11/15 16:14:02;;;;;;;;;14.00;10.33;;;;;;;;5019853;28;45475;-60
2022/11/15 16:16:28;;;;;;;;;12.00;12.00;;;;;;;;5006998;28;45352;-60
2022/11/15 16:18:54;;;;;;;;;12.33;10.67;;;;;;;;4991437;28;45274;-60
2022/11/15 16:21:19;;;;;;;;;9.67;9.33;;;;;;;;5015935;28;45384;-60
2022/11/15 16:23:44;;;;;;;;;13.00;13.00;;;;;;;;5018293;28;45752;-60
2022/11/15 16:26:30;;;;;;;;;10.00;10.00;;;;;;;;5019884;28;46261;-60
2022/11/15 16:28:55;;;;;;;;;6.33;6.33;;;;;;;;5022213;28;45226;-60
2022/11/15 16:31:23;;;;;;;;;11.33;10.00;;;;;;;;5019275;28;45225;-60
2022/11/15 16:33:48;;;;;;;;;9.00;9.00;;;;;;;;5019188;28;45249;-60
2022/11/15 16:36:20;;;;;;;;;12.33;10.00;;;;;;;;5019354;28;45874;-60
2022/11/15 16:38:45;;;;;;;;;9.33;9.33;;;;;;;;5018333;28;45463;-60
2022/11/15 16:41:10;;;;;;;;;11.00;9.00;;;;;;;;5017841;28;45255;-60
2022/11/15 16:43:35;;;;;;;;;13.33;12.00;;;;;;;;5015057;28;45477;-60
2022/11/15 16:46:06;;;;;;;;;11.67;10.00;;;;;;;;5018820;28;45440;-60
2022/11/15 16:48:33;;;;;;;;;11.00;10.33;;;;;;;;5018947;28;45459;-60
2022/11/15 16:50:58;;;;;;;;;16.33;15.00;;;;;;;;5017025;28;45612;-60
2022/11/15 16:53:24;;;;;;;;;11.00;10.00;;;;;;;;5014931;28;45451;-60
2022/11/15 16:55:49;;;;;;;;;9.33;9.33;;;;;;;;5016255;28;45391;-60
2022/11/15 16:58:15;;;;;;;;;13.33;12.33;;;;;;;;5014736;28;45501;-60
2022/11/15 17:00:40;;;;;;;;;10.67;10.67;;;;;;;;5019103;28;45269;-60
2022/11/15 17:03:06;;;;;;;;;12.67;12.67;;;;;;;;5029851;28;45599;-60
2022/11/15 17:05:31;;;;;;;;;16.00;13.33;;;;;;;;5015686;28;46165;-60
2022/11/15 17:07:56;;;;;;;;;12.67;12.67;;;;;;;;5013777;28;45510;-60
2022/11/15 17:10:22;;;;;;;;;11.67;11.67;;;;;;;;5019795;28;45316;-60
2022/11/15 17:12:48;;;;;;;;;11.67;11.00;;;;;;;;5011084;28;46604;-60
2022/11/15 17:15:13;;;;;;;;;14.00;10.00;;;;;;;;5014910;28;45355;-59
2022/11/15 17:17:39;;;;;;;;;8.33;8.00;;;;;;;;5016938;28;45750;-60
2022/11/15 17:20:08;;;;;;;;;14.00;13.00;;;;;;;;5016719;28;45538;-60
2022/11/15 17:22:34;;;;;;;;;11.33;11.00;;;;;;;;5011511;28;45557;-60
2022/11/15 17:24:59;;;;;;;;;12.33;12.33;;;;;;;;5018194;28;46109;-60
2022/11/15 17:27:24;;;;;;;;;10.67;9.67;;;;;;;;5013874;28;45264;-59
2022/11/15 17:29:49;;;;;;;;;10.33;10.33;;;;;;;;5015710;28;45508;-60
2022/11/15 17:32:15;;;;;;;;;11.67;11.67;;;;;;;;5017959;28;45583;-60
2022/11/15 17:34:40;;;;;;;;;12.33;11.00;;;;;;;;5017163;28;45557;-60
2022/11/15 17:37:05;;;;;;;;;14.00;12.33;;;;;;;;5025717;28;45533;-60
2022/11/15 17:39:30;;;;;;;;;11.33;10.00;;;;;;;;5016899;28;45379;-60
2022/11/15 17:41:55;;;;;;;;;9.00;9.00;;;;;;;;5017363;28;45285;-60
2022/11/15 17:44:20;;;;;;;;;11.00;9.00;;;;;;;;5017788;28;46117;-60
2022/11/15 17:46:46;;;;;;;;;10.00;10.00;;;;;;;;5017202;28;45297;-60
2022/11/15 17:49:11;;;;;;;;;9.67;7.67;;;;;;;;5011221;28;45231;-60
2022/11/15 17:51:36;;;;;;;;;10.33;10.33;;;;;;;;5011990;28;45290;-60
2022/11/15 17:54:01;;;;;;;;;12.00;11.00;;;;;;;;4996305;28;48066;-61
2022/11/15 17:56:28;;;;;;;;;9.67;9.67;;;;;;;;5010121;28;45272;-61
2022/11/15 17:58:54;;;;;;;;;12.33;10.67;;;;;;;;5017061;28;45451;-59
2022/11/15 18:01:21;;;;;;;;;12.67;10.00;;;;;;;;5017229;28;45548;-59
2022/11/15 18:03:46;;;;;;;;;5.67;5.00;;;;;;;;5015315;28;46389;-59
2022/11/15 18:06:11;;;;;;;;;10.33;9.33;;;;;;;;5017803;28;45328;-60
2022/11/15 18:08:37;;;;;;;;;11.33;8.67;;;;;;;;5018168;28;45479;-59
2022/11/15 18:11:04;;;;;;;;;8.33;8.33;;;;;;;;5011869;28;45460;-59
2022/11/15 18:13:30;;;;;;;;;12.00;11.00;;;;;;;;5016263;28;45442;-59
2022/11/15 18:15:55;;;;;;;;;9.67;8.00;;;;;;;;5016094;28;45293;-60
2022/11/15 18:18:20;;;;;;;;;8.00;8.00;;;;;;;;5017338;28;45321;-59
2022/11/15 18:20:46;;;;;;;;;8.00;7.33;;;;;;;;5032766;28;45795;-60
2022/11/15 18:23:11;;;;;;;;;10.67;8.67;;;;;;;;5043974;28;43946;-59
2022/11/15 18:25:36;;;;;;;;;9.33;9.00;;;;;;;;5047378;28;40895;-58
2022/11/15 18:28:01;;;;;;;;;10.33;9.00;;;;;;;;5044210;28;40677;-59
2022/11/15 18:30:26;;;;;;;;;8.00;8.00;;;;;;;;5041789;28;42088;-59
2022/11/15 18:32:52;;;;;;;;;8.33;8.33;;;;;;;;5033054;28;44554;-59
2022/11/15 18:35:18;;;;;;;;;9.00;9.00;;;;;;;;5025260;28;44758;-60
2022/11/15 18:37:43;;;;;;;;;9.75;8.00;;;;;;;;5053203;28;11994;-60
2022/11/15 18:40:09;;;;;;;;;8.33;8.33;;;;;;;;5053053;28;8990;-60
2022/11/15 18:42:34;;;;;;;;;10.00;8.67;;;;;;;;5052857;28;8872;-60
2022/11/15 18:45:00;;;;;;;;;10.33;10.00;;;;;;;;5046313;28;8953;-60
2022/11/15 18:47:25;;;;;;;;;10.50;10.50;;;;;;;;5047837;28;8809;-59
2022/11/15 18:49:50;;;;;;;;;10.67;9.00;;;;;;;;5058387;28;8884;-60
2022/11/15 18:52:16;;;;;;;;;9.33;9.00;;;;;;;;5053244;28;8908;-59
2022/11/15 18:54:41;;;;;;;;;9.67;8.00;;;;;;;;5048716;28;8833;-59
2022/11/15 18:57:06;;;;;;;;;6.67;6.67;;;;;;;;5047356;28;8843;-59
2022/11/15 18:59:31;;;;;;;;;7.00;7.00;;;;;;;;5052080;28;8819;-60
2022/11/15 19:01:56;;;;;;;;;8.67;7.00;;;;;;;;5053079;28;8811;-59
2022/11/15 19:04:22;;;;;;;;;7.67;6.00;;;;;;;;5018860;28;45476;-59
2022/11/15 19:06:48;;;;;;;;;7.00;7.00;;;;;;;;5021752;28;45460;-59
2022/11/15 19:09:14;;;;;;;;;7.33;7.33;;;;;;;;5015360;28;45451;-59
2022/11/15 19:11:40;;;;;;;;;10.00;10.00;;;;;;;;5017632;28;47067;-59
2022/11/15 19:14:09;;;;;;;;;8.00;8.00;;;;;;;;5019277;28;45356;-60
2022/11/15 19:16:36;;;;;;;;;6.00;6.00;;;;;;;;5020649;28;45609;-60
2022/11/15 19:19:04;;;;;;;;;11.67;8.33;;;;;;;;5013224;28;45448;-60
2022/11/15 19:21:30;;;;;;;;;9.00;7.67;;;;;;;;5018479;28;45285;-60
2022/11/15 19:23:55;;;;;;;;;8.67;8.67;;;;;;;;5020309;28;45231;-60
2022/11/15 19:26:22;;;;;;;;;9.00;8.00;;;;;;;;5020785;28;45479;-60
2022/11/15 19:28:51;;;;;;;;;10.33;9.33;;;;;;;;5019213;28;45348;-60
2022/11/15 19:31:16;;;;;;;;;9.33;9.00;;;;;;;;5018252;28;46306;-60
2022/11/15 19:33:44;;;;;;;;;9.33;8.33;;;;;;;;5020922;28;45471;-60
2022/11/15 19:36:17;;;;;;;;;9.33;8.33;;;;;;;;5018988;28;45518;-60
2022/11/15 19:38:43;;;;;;;;;7.67;7.33;;;;;;;;5020988;28;45507;-60
2022/11/15 19:41:15;;;;;;;;;6.00;6.00;;;;;;;;5011613;28;46473;-60
2022/11/15 19:43:41;;;;;;;;;9.00;8.67;;;;;;;;5017204;28;45366;-60
2022/11/15 19:46:06;;;;;;;;;6.33;6.33;;;;;;;;5003961;28;45506;-61
2022/11/15 19:48:32;;;;;;;;;8.00;7.00;;;;;;;;5016024;28;45668;-61
2022/11/15 19:51:01;;;;;;;;;5.33;5.33;;;;;;;;5019209;28;46100;-60
2022/11/15 19:53:27;;;;;;;;;5.33;5.00;;;;;;;;5016911;28;45403;-60
2022/11/15 19:55:53;;;;;;;;;6.00;6.00;;;;;;;;5016638;28;45533;-59
2022/11/15 19:58:19;;;;;;;;;4.33;4.33;;;;;;;;5013778;28;46148;-60
2022/11/15 20:00:44;;;;;;;;;4.00;4.00;;;;;;;;5018154;28;46655;-60
2022/11/15 20:03:09;;;;;;;;;6.33;4.00;;;;;;;;5016256;28;45438;-59
2022/11/15 20:05:34;;;;;;;;;3.67;3.67;;;;;;;;5019186;28;45451;-60
2022/11/15 20:08:00;;;;;;;;;5.33;3.67;;;;;;;;5009544;28;46108;-59
2022/11/15 20:10:25;;;;;;;;;5.00;3.33;;;;;;;;5018035;28;46094;-58
2022/11/15 20:12:50;;;;;;;;;5.00;3.33;;;;;;;;5017165;28;45806;-59